createdAt,value
2023-05-05T00:00:02.577Z,10.5
2023-05-05T00:15:03.023Z,10.2
2023-05-05T00:30:02.496Z,9.9
2023-05-05T00:45:02.910Z,10.0
2023-05-05T01:00:02.427Z,10.3
2023-05-05T01:15:02.783Z,10.5
2023-05-05T01:30:02.452Z,11.2
2023-05-05T01:45:02.661Z,11.6
2023-05-05T02:00:03.127Z,11.8
2023-05-05T02:15:02.547Z,11.8
2023-05-05T02:30:03.015Z,11.5
2023-05-05T02:45:02.457Z,11.1
2023-05-05T03:00:02.864Z,10.7
2023-05-05T03:15:02.440Z,10.3
2023-05-05T03:30:02.684Z,10.2
2023-05-05T03:45:03.166Z,10.1
2023-05-05T04:00:02.539Z,10.0
2023-05-05T04:15:02.979Z,9.8
2023-05-05T04:30:02.442Z,9.7
2023-05-05T04:45:02.845Z,10.1
2023-05-05T05:00:02.480Z,10.7
2023-05-05T05:15:02.766Z,11.9
2023-05-05T05:30:02.200Z,12.6
2023-05-05T05:45:02.660Z,11.8
2023-05-05T06:00:03.122Z,10.9
2023-05-05T06:15:02.551Z,10.6
2023-05-05T06:30:02.994Z,10.8
2023-05-05T06:45:02.480Z,11.2
2023-05-05T07:00:02.918Z,11.5
2023-05-05T07:15:12.153Z,12.5
2023-05-05T07:45:03.474Z,13.9
2023-05-05T08:00:02.691Z,15.2
2023-05-05T08:15:03.137Z,16.1
2023-05-05T08:30:02.586Z,16.7
2023-05-05T08:45:03.027Z,17.3
2023-05-05T09:00:02.494Z,17.3
2023-05-05T09:15:02.910Z,18.7
2023-05-05T09:30:02.509Z,20.0
2023-05-05T09:45:02.783Z,20.7
2023-05-05T10:00:03.250Z,20.8
2023-05-05T10:15:02.667Z,21.9
2023-05-05T10:30:03.116Z,22.7
2023-05-05T10:45:02.590Z,23.7
2023-05-05T11:00:02.985Z,23.9
2023-05-05T11:15:02.533Z,22.9
2023-05-05T11:30:02.871Z,23.4
2023-05-05T11:45:02.299Z,24.7
2023-05-05T12:00:02.738Z,25.2
2023-05-05T12:15:03.184Z,24.4
2023-05-05T12:30:02.611Z,23.5
2023-05-05T12:45:03.055Z,22.9
2023-05-05T13:00:02.550Z,22.5
2023-05-05T13:15:02.921Z,22.3
2023-05-05T13:30:02.565Z,21.7
2023-05-05T13:45:02.800Z,21.7
2023-05-05T14:00:03.253Z,21.6
2023-05-05T14:15:02.650Z,21.0
2023-05-05T14:30:03.098Z,20.6
2023-05-05T14:45:02.560Z,19.0
2023-05-05T15:00:02.944Z,14.7
2023-05-05T15:15:02.595Z,13.7
2023-05-05T15:30:02.838Z,13.4
2023-05-05T15:45:02.283Z,13.2
2023-05-05T16:00:02.828Z,13.2
2023-05-05T16:15:02.160Z,13.1
2023-05-05T16:30:02.617Z,13.0
2023-05-05T16:45:03.020Z,13.0
2023-05-05T17:00:02.605Z,13.0
2023-05-05T17:15:02.889Z,12.8
2023-05-05T17:30:02.586Z,12.9
2023-05-05T17:45:02.787Z,13.0
2023-05-05T18:00:03.244Z,13.1
2023-05-05T18:15:02.664Z,13.5
2023-05-05T18:30:03.101Z,12.8
2023-05-05T18:45:02.610Z,12.9
2023-05-05T19:00:02.992Z,12.6
2023-05-05T19:15:02.608Z,12.5
2023-05-05T19:30:02.888Z,12.4
2023-05-05T19:45:02.321Z,12.1
2023-05-05T20:00:02.773Z,11.5
2023-05-05T20:15:03.243Z,11.4
2023-05-05T20:30:02.664Z,11.2
2023-05-05T20:45:03.093Z,11.2
2023-05-05T21:00:02.615Z,11.5
2023-05-05T21:15:02.956Z,11.6
2023-05-05T21:30:02.608Z,11.3
2023-05-05T21:45:02.818Z,11.0
2023-05-05T22:00:02.237Z,10.8
2023-05-05T22:15:02.681Z,10.5
2023-05-05T22:30:03.113Z,10.2
2023-05-05T22:45:02.660Z,9.9
2023-05-05T23:00:02.968Z,9.6
2023-05-05T23:15:02.576Z,9.7
2023-05-05T23:30:02.857Z,9.2
2023-05-05T23:45:02.309Z,8.9
